Startpagina
METAR-TAF:

METAR-TAF

Vliegvelden :

Internationale Luchthaven Baghdad

Bagdad, Irak

breedte: 33-15-45N, lengte: 44-14-04E, hoogte: 35 m

Actueel weer

Dit bericht is 15 minuten geleden gemaakt, om 05:00 UTC
Wind 2 kt uit variabele richting
Temperatuur 32°C
Vochtigheid 28%
Druk 1010 hPa
Zicht 10 km of meer
geen wolken onder 1500 m en geen cumulonimbus

METAR: ORBI 210500Z VRB02KT CAVOK 32/11 Q1010 NOSIG

Tijdstip: 08:15 (05:15 UTC)

Verwachting

Dit bericht is 6 uur en het 15 minuten geleden gemaakt, om 23:00 UTC
Verwachting geldig van 21 om 00 UTC tot 21 om 24 UTC
Wind 2 kt uit variabele richting
Zicht 10 km of meer
geen wolken onder 1500 m en geen cumulonimbus
Wijzigt naar
van 21 om 02 UTC tot 21 om 04 UTC
Zicht: 8000 m
Verspreide wolken op 3000 ft
Gebroken wolken op 9000 ft

TAF: ORBI 202300Z 2100/2124 VRB02KT CAVOK BECMG 2102/2104 8000 SCT030 BKN090

Waarnemingen en weersverwachtingen van meer dan 4000 vliegvelden (METAR en TAF).

De beschikbare stations zijn de gele en rode punten op de kaart.

Ga met uw muis naar het station om de naam te zien.

Klik dan om waarnemingen en weersverwachtingen te zien.

kaart wijzigen: klik op de groene knoppen met een zwart kruis om in te zoomen, op de groene knop met een streepje om uit te zoomen of op de groene pijlen voor aangrenzende kaarten.


METAR-TAF: